Time;durP1;ratioP1;P1;durP2;ratioP2;P2;SDS_P1;SDS_P2;PMS_P1;PMS_P2;Temp;Humidity;BMP_temperature;BMP_pressure;BME280_temperature;BME280_humidity;BME280_pressure;Samples;Min_cycle;Max_cycle;Signal;HPM_P1;HPM_P2
2022/07/17 00:01:40;;;;;;;;;;;;;;;17.15;68.90;96767.00;6148868;28;19933;-66
2022/07/17 00:04:44;;;;;;;;;;;;;;;17.12;69.07;96761.97;6149051;28;20373;-65
2022/07/17 00:07:50;;;;;;;;;;;;;;;17.13;69.15;96766.31;6149058;28;19926;-66
2022/07/17 00:10:53;;;;;;;;;;;;;;;17.17;69.88;96770.34;6148907;28;19922;-65
2022/07/17 00:13:56;;;;;;;;;;;;;;;17.16;69.45;96774.84;6148785;28;20402;-65
2022/07/17 00:16:58;;;;;;;;;;;;;;;17.15;69.80;96770.50;6149198;28;19922;-66
2022/07/17 00:20:01;;;;;;;;;;;;;;;17.14;69.80;96765.34;6148599;28;19934;-65
2022/07/17 00:23:03;;;;;;;;;;;;;;;17.11;69.76;96770.94;6148766;28;19928;-66
2022/07/17 00:26:04;;;;;;;;;;;;;;;17.10;69.71;96774.56;6148733;29;19934;-65
2022/07/17 00:29:09;;;;;;;;;;;;;;;17.14;69.69;96775.97;6148697;29;19927;-65
2022/07/17 00:32:13;;;;;;;;;;;;;;;17.18;69.72;96780.00;6149315;28;19926;-65
2022/07/17 00:35:14;;;;;;;;;;;;;;;17.24;69.68;96780.28;6153280;28;19933;-65
2022/07/17 00:38:17;;;;;;;;;;;;;;;17.31;69.71;96780.53;6153381;28;20290;-65
2022/07/17 00:41:21;;;;;;;;;;;;;;;17.37;69.60;96787.94;6152818;28;19933;-65
2022/07/17 00:44:26;;;;;;;;;;;;;;;17.44;69.51;96789.06;6152566;28;19926;-65
2022/07/17 00:47:27;;;;;;;;;;;;;;;17.54;69.49;96782.88;6152869;28;20316;-65
2022/07/17 00:50:31;;;;;;;;;;;;;;;17.59;69.29;96794.75;6152666;29;19937;-65
2022/07/17 00:53:37;;;;;;;;;;;;;;;17.64;68.99;96795.16;6152710;28;19922;-65
2022/07/17 00:56:39;;;;;;;;;;;;;;;17.67;69.00;96810.81;6152307;29;20309;-65
2022/07/17 00:59:41;;;;;;;;;;;;;;;17.72;68.80;96807.75;6152213;29;19959;-65
2022/07/17 01:02:47;;;;;;;;;;;;;;;17.76;68.81;96808.28;6152739;28;19973;-65
2022/07/17 01:05:51;;;;;;;;;;;;;;;17.80;68.72;96810.53;6152612;29;19926;-66
2022/07/17 01:08:52;;;;;;;;;;;;;;;17.86;68.37;96809.97;6152234;28;20024;-66
2022/07/17 01:12:00;;;;;;;;;;;;;;;17.94;68.14;96817.19;6152112;29;19926;-66
2022/07/17 01:15:01;;;;;;;;;;;;;;;18.06;68.01;96820.50;6152106;28;19989;-66
2022/07/17 01:18:08;;;;;;;;;;;;;;;18.13;67.60;96826.94;6152401;28;19926;-66
2022/07/17 01:21:10;;;;;;;;;;;;;;;18.19;67.30;96831.66;6151985;28;19934;-65
2022/07/17 01:24:14;;;;;;;;;;;;;;;18.32;67.36;96826.81;6151807;29;19927;-66
2022/07/17 01:27:15;;;;;;;;;;;;;;;18.37;67.06;96835.22;6151990;28;20003;-65
2022/07/17 01:30:19;;;;;;;;;;;;;;;18.42;66.96;96833.91;6151972;28;19926;-65
2022/07/17 01:33:22;;;;;;;;;;;;;;;18.44;66.93;96839.94;6151695;28;19934;-65
2022/07/17 01:36:26;;;;;;;;;;;;;;;18.45;66.77;96845.09;6151764;29;19927;-66
2022/07/17 01:42:49;;;;;;;;;;;;;;;18.51;66.28;96857.00;6151468;28;19926;-66
2022/07/17 01:45:53;;;;;;;;;;;;;;;18.57;65.94;96856.38;6150713;28;19930;-66
2022/07/17 01:48:56;;;;;;;;;;;;;;;18.60;66.48;96856.13;6151426;28;20312;-65
2022/07/17 01:51:59;;;;;;;;;;;;;;;18.63;66.05;96866.47;6151281;29;19927;-65
2022/07/17 01:55:06;;;;;;;;;;;;;;;18.66;66.14;96865.34;6151313;28;19927;-65
2022/07/17 01:58:09;;;;;;;;;;;;;;;18.72;65.91;96862.91;6151241;28;20423;-65
2022/07/17 02:01:13;;;;;;;;;;;;;;;18.81;65.96;96864.69;6151032;28;19948;-65
2022/07/17 02:04:16;;;;;;;;;;;;;;;18.88;65.35;96858.75;6151076;28;20025;-66
2022/07/17 02:07:20;;;;;;;;;;;;;;;18.94;65.34;96860.81;6151026;28;19966;-65
2022/07/17 02:10:21;;;;;;;;;;;;;;;18.97;65.22;96863.19;6150788;28;19949;-65
2022/07/17 02:13:25;;;;;;;;;;;;;;;19.02;65.07;96860.88;6151000;28;19923;-66
2022/07/17 02:16:26;;;;;;;;;;;;;;;19.10;65.38;96866.28;6150534;28;19927;-65
2022/07/17 02:19:29;;;;;;;;;;;;;;;19.17;64.85;96864.72;6149406;29;19930;-65
2022/07/17 02:22:34;;;;;;;;;;;;;;;19.23;64.77;96869.41;6150460;28;19927;-65
2022/07/17 02:25:35;;;;;;;;;;;;;;;19.31;64.79;96865.16;6150390;28;19937;-65
2022/07/17 02:28:38;;;;;;;;;;;;;;;19.40;64.77;96869.56;6150705;28;19930;-65
2022/07/17 02:31:41;;;;;;;;;;;;;;;19.45;64.37;96868.09;6150561;28;19926;-65
2022/07/17 02:34:45;;;;;;;;;;;;;;;19.53;64.45;96867.31;6149861;28;19926;-65
2022/07/17 02:37:48;;;;;;;;;;;;;;;19.56;64.36;96867.03;6150035;28;19933;-65
2022/07/17 02:40:56;;;;;;;;;;;;;;;19.64;64.08;96877.75;6150131;28;19926;-65
2022/07/17 02:43:57;;;;;;;;;;;;;;;19.71;63.88;96873.50;6150456;28;20312;-65
2022/07/17 02:47:01;;;;;;;;;;;;;;;19.77;63.97;96877.38;6150301;28;19926;-65
2022/07/17 02:50:05;;;;;;;;;;;;;;;19.85;63.51;96885.44;6149522;28;20321;-65
2022/07/17 02:53:07;;;;;;;;;;;;;;;19.95;63.54;96886.16;6149815;28;19926;-65
2022/07/17 02:56:11;;;;;;;;;;;;;;;20.04;63.28;96889.75;6149238;28;19953;-65
2022/07/17 02:59:14;;;;;;;;;;;;;;;20.15;62.92;96881.41;6150077;28;19942;-65
2022/07/17 03:02:15;;;;;;;;;;;;;;;20.29;62.58;96882.66;6164208;28;19926;-65
2022/07/17 03:05:22;;;;;;;;;;;;;;;20.38;61.64;96886.22;6149802;28;19933;-65
2022/07/17 03:08:25;;;;;;;;;;;;;;;20.46;61.30;96888.91;6149780;28;20384;-66
2022/07/17 03:11:26;;;;;;;;;;;;;;;20.51;61.12;96881.25;6149587;28;19934;-66
2022/07/17 03:14:30;;;;;;;;;;;;;;;20.62;60.67;96878.31;6149040;28;20289;-66
2022/07/17 03:17:34;;;;;;;;;;;;;;;20.76;60.21;96873.34;6149287;29;19926;-66
2022/07/17 03:20:38;;;;;;;;;;;;;;;20.85;59.91;96877.72;6149603;28;19933;-65
2022/07/17 03:23:41;;;;;;;;;;;;;;;21.03;59.27;96882.94;6148470;28;19926;-66
2022/07/17 03:26:42;;;;;;;;;;;;;;;21.12;58.82;96875.75;6149352;29;19926;-65
2022/07/17 03:29:52;;;;;;;;;;;;;;;21.11;58.87;96876.75;6149472;28;20312;-65
2022/07/17 03:32:56;;;;;;;;;;;;;;;21.15;58.81;96867.41;6149194;28;19926;-65
2022/07/17 03:35:58;;;;;;;;;;;;;;;21.25;58.48;96868.06;6149171;28;20101;-65
2022/07/17 03:38:59;;;;;;;;;;;;;;;21.32;58.05;96858.41;6149178;28;19927;-65
2022/07/17 03:42:03;;;;;;;;;;;;;;;21.39;57.40;96875.47;6149067;28;19926;-65
2022/07/17 03:45:07;;;;;;;;;;;;;;;21.55;56.27;96877.31;6148664;28;20300;-65
2022/07/17 03:48:11;;;;;;;;;;;;;;;21.62;55.86;96874.81;6148945;29;20071;-65
2022/07/17 03:51:15;;;;;;;;;;;;;;;21.71;55.41;96873.78;6149109;28;19926;-65
2022/07/17 03:54:18;;;;;;;;;;;;;;;21.80;54.99;96867.44;6149113;29;19981;-65
2022/07/17 03:57:22;;;;;;;;;;;;;;;21.82;55.03;96861.88;6148718;29;19926;-65
2022/07/17 04:00:26;;;;;;;;;;;;;;;21.89;54.74;96871.75;6148798;29;19927;-65
2022/07/17 04:03:29;;;;;;;;;;;;;;;21.98;54.16;96870.72;6148746;29;19926;-66
2022/07/17 04:06:33;;;;;;;;;;;;;;;22.01;54.12;96866.03;6148725;28;19926;-66
2022/07/17 04:09:36;;;;;;;;;;;;;;;22.09;54.35;96868.69;6153022;28;20066;-66
2022/07/17 04:12:40;;;;;;;;;;;;;;;22.23;54.15;96876.06;6153460;29;19926;-65
2022/07/17 04:15:49;;;;;;;;;;;;;;;22.42;53.76;96880.19;6153406;28;19926;-65
2022/07/17 04:18:50;;;;;;;;;;;;;;;22.72;52.46;96873.16;6153609;28;20373;-66
2022/07/17 04:21:54;;;;;;;;;;;;;;;22.67;52.50;96878.22;6153116;28;20017;-66
2022/07/17 04:24:55;;;;;;;;;;;;;;;22.70;52.22;96874.34;6153317;28;20396;-68
2022/07/17 04:28:00;;;;;;;;;;;;;;;22.63;52.61;96884.94;6153220;28;19926;-66
2022/07/17 04:31:01;;;;;;;;;;;;;;;22.70;52.41;96875.19;6152954;28;20072;-66
2022/07/17 04:34:05;;;;;;;;;;;;;;;22.83;52.33;96875.44;6152983;28;19930;-65
2022/07/17 04:37:11;;;;;;;;;;;;;;;23.11;51.51;96876.84;6153229;28;20036;-65
2022/07/17 04:40:17;;;;;;;;;;;;;;;23.25;51.35;96871.53;6152745;28;19926;-67
2022/07/17 04:43:18;;;;;;;;;;;;;;;23.48;50.85;96874.19;6152585;28;19926;-66
2022/07/17 04:46:23;;;;;;;;;;;;;;;24.19;49.66;96872.03;6152714;28;19926;-66
2022/07/17 04:49:24;;;;;;;;;;;;;;;26.53;44.63;96875.25;6152371;28;19932;-65
2022/07/17 04:52:28;;;;;;;;;;;;;;;29.06;40.60;96876.16;6152556;28;19926;-65
2022/07/17 04:55:31;;;;;;;;;;;;;;;31.83;36.24;96882.72;6152333;28;20396;-66
2022/07/17 04:58:37;;;;;;;;;;;;;;;34.17;33.32;96888.66;6152598;28;20404;-65
2022/07/17 05:01:38;;;;;;;;;;;;;;;36.56;30.25;96903.34;6152264;29;19926;-66
2022/07/17 05:04:41;;;;;;;;;;;;;;;38.60;28.67;96896.66;6152228;29;20357;-65
2022/07/17 05:07:42;;;;;;;;;;;;;;;39.77;25.34;96897.28;6152338;28;19933;-66
2022/07/17 05:10:46;;;;;;;;;;;;;;;41.42;26.02;96896.16;6152123;29;19926;-65
2022/07/17 05:13:47;;;;;;;;;;;;;;;43.49;23.35;96898.59;6152327;29;19933;-65
2022/07/17 05:16:51;;;;;;;;;;;;;;;44.67;20.92;96898.47;6151987;28;20401;-65
2022/07/17 05:19:54;;;;;;;;;;;;;;;45.56;22.12;96896.53;6150546;28;19926;-65
2022/07/17 05:22:56;;;;;;;;;;;;;;;46.35;19.74;96896.16;6151667;28;20409;-66
2022/07/17 05:25:58;;;;;;;;;;;;;;;46.08;17.65;96896.53;6151516;28;19926;-66
2022/07/17 05:29:03;;;;;;;;;;;;;;;45.66;17.51;96891.44;6151668;28;19927;-65
2022/07/17 05:32:07;;;;;;;;;;;;;;;45.79;16.18;96892.44;6151891;29;19926;-68
2022/07/17 05:35:08;;;;;;;;;;;;;;;45.53;17.15;96892.44;6150889;28;19934;-67
2022/07/17 05:38:14;;;;;;;;;;;;;;;46.46;17.29;96895.78;6151115;28;19926;-66
2022/07/17 05:41:20;;;;;;;;;;;;;;;47.54;15.80;96901.06;6151535;29;19927;-66
2022/07/17 05:44:24;;;;;;;;;;;;;;;47.55;15.41;96900.72;6151365;28;19926;-65
2022/07/17 05:47:27;;;;;;;;;;;;;;;47.17;16.48;96900.81;6151236;28;19933;-65
2022/07/17 05:50:34;;;;;;;;;;;;;;;48.63;15.53;96899.91;6151328;28;20412;-65
2022/07/17 05:53:35;;;;;;;;;;;;;;;50.50;14.31;96895.28;6151244;28;19926;-66
2022/07/17 05:56:36;;;;;;;;;;;;;;;51.05;12.82;96906.72;6151150;28;20312;-65
2022/07/17 05:59:37;;;;;;;;;;;;;;;47.67;15.45;96895.19;6150377;28;19926;-66
2022/07/17 06:02:38;;;;;;;;;;;;;;;43.65;18.60;96869.41;6150795;28;19949;-66
2022/07/17 06:05:42;;;;;;;;;;;;;;;41.83;20.63;96864.34;6150452;28;20072;-64
2022/07/17 06:08:43;;;;;;;;;;;;;;;44.37;17.60;96873.22;6150771;28;20312;-66
2022/07/17 06:11:46;;;;;;;;;;;;;;;44.08;17.29;96882.81;6150726;29;19926;-66
2022/07/17 06:14:50;;;;;;;;;;;;;;;42.21;18.02;96876.19;6150615;28;19927;-65
2022/07/17 06:17:54;;;;;;;;;;;;;;;44.32;16.90;96889.97;6150538;29;19927;-64
2022/07/17 06:20:59;;;;;;;;;;;;;;;45.02;15.94;96882.81;6150405;29;19927;-65
2022/07/17 06:24:04;;;;;;;;;;;;;;;45.04;15.78;96881.34;6150630;29;19926;-65
2022/07/17 06:27:05;;;;;;;;;;;;;;;44.43;16.30;96883.03;6150227;29;19926;-65
2022/07/17 06:30:11;;;;;;;;;;;;;;;45.89;15.07;96897.66;6150135;28;20029;-65
2022/07/17 06:33:14;;;;;;;;;;;;;;;48.82;13.28;96899.34;6150130;28;19933;-64
2022/07/17 06:36:16;;;;;;;;;;;;;;;51.00;11.04;96899.41;6149954;29;20344;-65
2022/07/17 06:39:20;;;;;;;;;;;;;;;53.07;11.45;96910.50;6150117;28;19927;-65
2022/07/17 06:42:24;;;;;;;;;;;;;;;53.75;9.60;96912.34;6150105;28;20407;-65
2022/07/17 06:45:25;;;;;;;;;;;;;;;53.60;10.87;96896.44;6149783;29;19931;-66
2022/07/17 06:48:29;;;;;;;;;;;;;;;54.79;10.79;96893.81;6149844;28;19927;-65
2022/07/17 06:51:32;;;;;;;;;;;;;;;55.55;8.91;96900.84;6149761;29;20495;-65
2022/07/17 06:54:35;;;;;;;;;;;;;;;54.91;8.96;96889.88;6149743;29;19926;-65
2022/07/17 06:57:41;;;;;;;;;;;;;;;53.87;9.59;96876.69;6149897;28;19930;-65
2022/07/17 07:00:47;;;;;;;;;;;;;;;54.43;9.13;96876.56;6149416;28;20400;-66
2022/07/17 07:03:50;;;;;;;;;;;;;;;55.84;9.07;96884.88;6149718;29;19978;-66
2022/07/17 07:06:51;;;;;;;;;;;;;;;56.46;8.64;96881.84;6149400;28;20332;-65
2022/07/17 07:09:55;;;;;;;;;;;;;;;56.91;8.67;96879.50;6149634;28;19926;-65
2022/07/17 07:12:59;;;;;;;;;;;;;;;57.57;7.48;96883.84;6149250;28;19930;-65
2022/07/17 07:16:05;;;;;;;;;;;;;;;57.26;7.66;96883.50;6149489;28;19930;-65
2022/07/17 07:19:07;;;;;;;;;;;;;;;53.11;9.42;96869.19;6149422;28;19926;-66
2022/07/17 07:22:11;;;;;;;;;;;;;;;49.94;11.03;96847.75;6149387;28;20065;-66
2022/07/17 07:25:14;;;;;;;;;;;;;;;50.78;11.31;96846.78;6149432;29;19931;-65
2022/07/17 07:28:20;;;;;;;;;;;;;;;52.20;10.47;96851.13;6149210;28;20316;-64
2022/07/17 07:31:23;;;;;;;;;;;;;;;54.03;8.78;96857.63;6148613;28;19926;-64
2022/07/17 07:34:24;;;;;;;;;;;;;;;53.56;9.65;96861.81;6149199;29;19927;-65
2022/07/17 07:37:26;;;;;;;;;;;;;;;51.50;10.44;96852.09;6163130;28;19949;-66
2022/07/17 07:40:30;;;;;;;;;;;;;;;48.76;11.90;96839.31;6149243;28;20303;-65
2022/07/17 07:43:36;;;;;;;;;;;;;;;47.43;12.82;96839.34;6155170;28;19926;-65
2022/07/17 07:46:41;;;;;;;;;;;;;;;49.44;11.79;96835.91;6157078;28;19927;-63
2022/07/17 07:49:43;;;;;;;;;;;;;;;52.62;9.91;96853.13;6156600;28;19926;-66
2022/07/17 07:52:47;;;;;;;;;;;;;;;53.36;9.67;96847.91;6156945;29;19926;-66
2022/07/17 07:55:54;;;;;;;;;;;;;;;54.22;8.91;96843.34;6156863;28;19930;-64
2022/07/17 07:58:57;;;;;;;;;;;;;;;55.17;9.14;96838.13;6156615;28;19936;-64
2022/07/17 08:02:01;;;;;;;;;;;;;;;54.41;8.81;96838.72;6156369;28;20419;-66
2022/07/17 08:05:02;;;;;;;;;;;;;;;55.37;8.93;96838.66;6156751;28;20397;-66
2022/07/17 08:08:04;;;;;;;;;;;;;;;55.29;8.97;96834.19;6157034;28;19949;-65
2022/07/17 08:11:06;;;;;;;;;;;;;;;54.84;8.89;96825.00;6156737;28;19949;-65
2022/07/17 08:14:10;;;;;;;;;;;;;;;53.14;9.63;96818.66;6156739;28;19926;-64
2022/07/17 08:17:12;;;;;;;;;;;;;;;51.76;10.65;96818.63;6156488;28;19926;-66
2022/07/17 08:20:18;;;;;;;;;;;;;;;52.21;10.28;96827.50;6156690;28;19927;-65
2022/07/17 08:23:21;;;;;;;;;;;;;;;52.86;9.66;96819.03;6156922;28;20467;-65
2022/07/17 08:26:28;;;;;;;;;;;;;;;54.11;9.23;96824.72;6156462;28;19958;-66
2022/07/17 08:29:29;;;;;;;;;;;;;;;55.57;8.13;96820.22;6156275;28;19926;-66
2022/07/17 08:32:33;;;;;;;;;;;;;;;54.91;8.92;96819.41;6156626;28;19926;-66
2022/07/17 08:35:37;;;;;;;;;;;;;;;54.21;8.36;96813.56;6156544;28;19926;-65
2022/07/17 08:38:41;;;;;;;;;;;;;;;53.23;8.61;96809.09;6156799;28;19927;-65
2022/07/17 08:41:42;;;;;;;;;;;;;;;52.37;9.06;96814.16;6154947;28;19934;-65
2022/07/17 08:44:46;;;;;;;;;;;;;;;51.64;9.82;96799.94;6156135;28;19937;-65
2022/07/17 08:47:51;;;;;;;;;;;;;;;52.49;9.66;96805.56;6156025;28;19926;-65
2022/07/17 08:50:58;;;;;;;;;;;;;;;52.53;9.38;96808.44;6156210;28;19927;-66
2022/07/17 08:54:02;;;;;;;;;;;;;;;52.74;9.28;96797.56;6154813;28;19934;-65
2022/07/17 08:57:03;;;;;;;;;;;;;;;52.98;8.86;96798.31;6152736;28;20280;-66
2022/07/17 09:00:07;;;;;;;;;;;;;;;50.13;10.56;96789.13;6152359;28;20286;-66
2022/07/17 09:03:14;;;;;;;;;;;;;;;46.49;13.02;96778.28;6152486;28;19973;-66
2022/07/17 09:06:20;;;;;;;;;;;;;;;48.03;12.02;96789.75;6152295;28;19926;-66
2022/07/17 09:09:24;;;;;;;;;;;;;;;50.75;10.31;96795.91;6152310;28;19927;-66
2022/07/17 09:12:28;;;;;;;;;;;;;;;48.49;11.79;96784.94;6152291;28;20428;-65
2022/07/17 09:15:32;;;;;;;;;;;;;;;44.47;14.46;96775.81;6152136;28;19926;-65
2022/07/17 09:18:57;;;;;;;;;;;;;;;43.66;14.53;96765.75;6152003;28;19961;-65
2022/07/17 09:22:05;;;;;;;;;;;;;;;45.80;13.41;96768.13;6151858;28;19927;-65
2022/07/17 09:25:11;;;;;;;;;;;;;;;46.61;12.91;96764.44;6152013;28;19926;-64
2022/07/17 09:28:15;;;;;;;;;;;;;;;47.31;12.92;96775.13;6151403;29;20082;-65
2022/07/17 09:31:26;;;;;;;;;;;;;;;48.41;12.11;96777.50;6151561;29;19985;-64
2022/07/17 09:34:32;;;;;;;;;;;;;;;48.03;12.19;96784.97;6151836;28;19927;-65
2022/07/17 09:37:38;;;;;;;;;;;;;;;48.01;12.34;96776.13;6151831;28;20305;-65
2022/07/17 09:44:04;;;;;;;;;;;;;;;45.73;14.19;96763.09;6151376;28;19926;-65
2022/07/17 09:47:09;;;;;;;;;;;;;;;46.16;13.49;96764.97;6151252;29;19926;-65
2022/07/17 09:50:12;;;;;;;;;;;;;;;46.34;13.34;96758.19;6151144;28;19926;-66
2022/07/17 09:53:23;;;;;;;;;;;;;;;45.48;14.06;96751.66;6151412;28;20317;-66
2022/07/17 09:56:26;;;;;;;;;;;;;;;45.98;13.63;96763.38;6151149;28;19933;-65
2022/07/17 09:59:35;;;;;;;;;;;;;;;46.40;13.24;96763.56;6151255;28;19926;-65
2022/07/17 10:02:39;;;;;;;;;;;;;;;44.07;14.61;96748.06;6151229;28;19926;-65
2022/07/17 10:05:44;;;;;;;;;;;;;;;41.54;16.85;96749.34;6150269;28;20256;-65
2022/07/17 10:08:47;;;;;;;;;;;;;;;39.18;19.15;96737.44;6150869;28;20297;-65
2022/07/17 10:11:50;;;;;;;;;;;;;;;37.52;21.06;96740.19;6150627;28;20417;-65
2022/07/17 10:14:54;;;;;;;;;;;;;;;36.52;21.78;96734.19;6150655;28;20017;-65
2022/07/17 10:18:05;;;;;;;;;;;;;;;36.25;22.48;96732.44;6150748;28;19973;-66
2022/07/17 10:21:09;;;;;;;;;;;;;;;36.58;22.19;96736.72;6150837;29;19927;-65
2022/07/17 10:24:16;;;;;;;;;;;;;;;37.60;20.90;96743.50;6150387;28;20392;-65
2022/07/17 10:27:27;;;;;;;;;;;;;;;36.80;21.43;96738.41;6150656;28;19926;-66
2022/07/17 10:30:31;;;;;;;;;;;;;;;35.34;23.06;96741.66;6150289;29;20315;-65
2022/07/17 10:33:35;;;;;;;;;;;;;;;35.63;23.01;96744.91;6148944;29;19933;-66
2022/07/17 10:36:41;;;;;;;;;;;;;;;37.07;21.16;96743.72;6150129;28;19926;-65
2022/07/17 10:39:53;;;;;;;;;;;;;;;36.75;21.80;96746.66;6148576;29;20392;-65
2022/07/17 10:42:56;;;;;;;;;;;;;;;35.99;22.76;96739.69;6149821;28;19927;-66
2022/07/17 10:45:59;;;;;;;;;;;;;;;37.27;21.85;96749.22;6150012;28;19932;-66
2022/07/17 10:49:03;;;;;;;;;;;;;;;38.42;20.43;96749.66;6150030;28;20013;-66
2022/07/17 10:52:07;;;;;;;;;;;;;;;39.12;19.87;96748.75;6150416;28;19933;-66
2022/07/17 10:55:18;;;;;;;;;;;;;;;39.27;19.50;96746.72;6149854;28;20428;-66
2022/07/17 10:58:34;;;;;;;;;;;;;;;37.72;20.90;96741.28;6149947;28;19926;-65
2022/07/17 11:01:35;;;;;;;;;;;;;;;37.37;22.26;96737.44;6149717;29;20273;-65
2022/07/17 11:04:39;;;;;;;;;;;;;;;38.57;20.55;96741.34;6149564;28;19927;-65
2022/07/17 11:07:58;;;;;;;;;;;;;;;39.85;19.12;96739.66;6149480;28;20491;-65
2022/07/17 11:11:01;;;;;;;;;;;;;;;40.46;18.39;96733.47;6149751;29;19927;-65
2022/07/17 11:14:25;;;;;;;;;;;;;;;41.11;17.86;96740.34;6149626;28;20025;-65
2022/07/17 11:17:26;;;;;;;;;;;;;;;41.15;17.49;96735.88;6148332;28;19933;-65
2022/07/17 11:20:27;;;;;;;;;;;;;;;41.04;17.91;96738.75;6149538;28;20380;-65
2022/07/17 11:23:32;;;;;;;;;;;;;;;41.24;17.54;96745.94;6149258;29;20017;-65
2022/07/17 11:26:36;;;;;;;;;;;;;;;41.74;17.50;96748.19;6149478;28;19938;-65
2022/07/17 11:29:43;;;;;;;;;;;;;;;41.85;17.11;96746.88;6149349;28;19927;-65
2022/07/17 11:32:44;;;;;;;;;;;;;;;41.25;17.63;96750.34;6149339;29;19926;-65
2022/07/17 11:35:48;;;;;;;;;;;;;;;40.79;18.04;96741.88;6149024;29;19930;-66
2022/07/17 11:38:53;;;;;;;;;;;;;;;40.95;17.95;96740.56;6149191;28;19926;-64
2022/07/17 11:41:57;;;;;;;;;;;;;;;40.96;17.32;96735.84;6149183;28;19949;-66
2022/07/17 11:45:00;;;;;;;;;;;;;;;40.65;17.70;96733.50;6148669;29;19926;-66
2022/07/17 11:48:05;;;;;;;;;;;;;;;40.24;17.98;96727.69;6148877;28;19927;-65
2022/07/17 11:51:06;;;;;;;;;;;;;;;39.93;18.35;96733.50;6148999;28;19936;-65
2022/07/17 11:54:13;;;;;;;;;;;;;;;39.61;18.39;96721.13;6148687;29;20312;-64
2022/07/17 11:57:17;;;;;;;;;;;;;;;39.17;18.53;96724.75;6148744;28;20311;-66
2022/07/17 12:00:21;;;;;;;;;;;;;;;38.83;19.36;96722.75;6148950;28;19922;-65
2022/07/17 12:03:25;;;;;;;;;;;;;;;38.54;19.35;96727.34;6148181;28;19926;-66
2022/07/17 12:06:31;;;;;;;;;;;;;;;38.25;19.97;96724.44;6148953;28;19933;-66
2022/07/17 12:09:37;;;;;;;;;;;;;;;38.48;19.20;96725.72;6148374;28;19926;-66
2022/07/17 12:12:50;;;;;;;;;;;;;;;38.49;19.37;96732.84;6148367;29;19930;-66
2022/07/17 12:15:52;;;;;;;;;;;;;;;38.26;19.83;96731.56;6148763;28;19985;-65
2022/07/17 12:18:57;;;;;;;;;;;;;;;38.05;20.07;96725.28;6148825;28;19933;-66
2022/07/17 12:22:01;;;;;;;;;;;;;;;37.34;21.18;96727.00;6148751;28;20419;-65
2022/07/17 12:25:04;;;;;;;;;;;;;;;36.84;21.07;96717.59;6148661;29;19933;-66
2022/07/17 12:28:07;;;;;;;;;;;;;;;36.63;21.89;96716.72;6149288;28;19927;-65
2022/07/17 12:31:12;;;;;;;;;;;;;;;36.91;21.19;96723.63;6152964;29;19926;-65
2022/07/17 12:34:13;;;;;;;;;;;;;;;37.17;21.61;96726.44;6153149;29;19926;-66
2022/07/17 12:37:21;;;;;;;;;;;;;;;36.81;21.92;96723.63;6152995;28;20367;-66
2022/07/17 12:40:23;;;;;;;;;;;;;;;35.96;22.71;96729.25;6152864;29;19927;-65
2022/07/17 12:43:26;;;;;;;;;;;;;;;35.52;23.24;96726.75;6152794;28;20324;-66
2022/07/17 12:46:27;;;;;;;;;;;;;;;35.21;23.35;96731.97;6152369;28;19930;-66
2022/07/17 12:49:30;;;;;;;;;;;;;;;35.21;23.89;96725.69;6152240;28;19932;-64
2022/07/17 12:52:36;;;;;;;;;;;;;;;35.05;23.92;96724.72;6152692;28;20356;-66
2022/07/17 12:55:42;;;;;;;;;;;;;;;34.95;24.17;96730.06;6152648;28;19934;-66
2022/07/17 12:58:46;;;;;;;;;;;;;;;34.71;24.40;96724.91;6152374;28;20323;-66
2022/07/17 13:01:49;;;;;;;;;;;;;;;34.68;24.50;96730.91;6152153;29;19926;-65
2022/07/17 13:04:50;;;;;;;;;;;;;;;34.58;25.39;96736.25;6152200;29;19934;-66
2022/07/17 13:07:54;;;;;;;;;;;;;;;34.21;25.21;96742.31;6152030;29;19922;-66
2022/07/17 13:10:55;;;;;;;;;;;;;;;33.74;25.50;96743.56;6152417;28;19926;-65
2022/07/17 13:13:58;;;;;;;;;;;;;;;33.06;26.59;96737.22;6152486;28;19933;-64
2022/07/17 13:17:05;;;;;;;;;;;;;;;32.70;26.87;96737.63;6152249;28;20388;-65
2022/07/17 13:20:07;;;;;;;;;;;;;;;32.51;27.46;96737.84;6151934;29;19926;-66
2022/07/17 13:23:08;;;;;;;;;;;;;;;32.38;27.38;96736.16;6151791;28;20308;-65
2022/07/17 13:26:12;;;;;;;;;;;;;;;32.38;26.92;96746.25;6152075;28;20324;-65
2022/07/17 13:29:15;;;;;;;;;;;;;;;32.63;27.49;96751.41;6151822;28;20332;-67
2022/07/17 13:32:19;;;;;;;;;;;;;;;32.68;27.25;96750.69;6151571;29;19981;-66
2022/07/17 13:35:20;;;;;;;;;;;;;;;32.85;27.01;96751.56;6150923;28;19950;-65
2022/07/17 13:38:21;;;;;;;;;;;;;;;32.97;27.18;96749.59;6151604;28;19926;-65
2022/07/17 13:41:22;;;;;;;;;;;;;;;33.00;27.36;96740.94;6150559;28;19926;-66
2022/07/17 13:44:23;;;;;;;;;;;;;;;32.93;27.18;96745.72;6151437;28;19946;-66
2022/07/17 13:47:27;;;;;;;;;;;;;;;32.59;27.27;96753.78;6151281;29;19926;-66
2022/07/17 13:50:31;;;;;;;;;;;;;;;32.40;28.04;96749.56;6151020;28;19926;-66
2022/07/17 13:53:33;;;;;;;;;;;;;;;32.04;28.27;96754.25;6151036;28;20290;-66
2022/07/17 13:56:37;;;;;;;;;;;;;;;31.91;28.44;96758.06;6151129;29;20312;-66
2022/07/17 13:59:40;;;;;;;;;;;;;;;31.84;28.81;96753.75;6151313;28;20389;-67
2022/07/17 14:02:45;;;;;;;;;;;;;;;31.58;28.32;96766.78;6151104;28;19926;-66
2022/07/17 14:05:47;;;;;;;;;;;;;;;31.24;28.84;96761.03;6150922;29;20403;-64
2022/07/17 14:08:51;;;;;;;;;;;;;;;30.87;30.06;96761.16;6150721;28;19930;-65
2022/07/17 14:11:54;;;;;;;;;;;;;;;30.57;30.71;96761.16;6151254;28;19927;-65
2022/07/17 14:14:55;;;;;;;;;;;;;;;30.27;30.97;96768.41;6150681;29;20320;-65
2022/07/17 14:17:59;;;;;;;;;;;;;;;29.99;30.91;96772.44;6150570;29;19927;-66
2022/07/17 14:21:03;;;;;;;;;;;;;;;29.91;30.77;96765.41;6149379;29;20316;-65
2022/07/17 14:24:10;;;;;;;;;;;;;;;29.87;30.99;96768.81;6150569;28;19930;-65
2022/07/17 14:27:15;;;;;;;;;;;;;;;29.70;31.26;96757.72;6150733;28;20440;-66
2022/07/17 14:30:19;;;;;;;;;;;;;;;29.70;30.99;96757.72;6165050;28;19983;-66
2022/07/17 14:33:23;;;;;;;;;;;;;;;29.57;31.42;96757.81;6150080;28;19926;-66
2022/07/17 14:36:26;;;;;;;;;;;;;;;29.39;31.85;96764.84;6150115;28;19934;-65
2022/07/17 14:39:27;;;;;;;;;;;;;;;29.18;31.97;96759.78;6149609;28;19927;-66
2022/07/17 14:42:33;;;;;;;;;;;;;;;29.00;32.22;96764.03;6149800;28;19927;-66
2022/07/17 14:45:34;;;;;;;;;;;;;;;28.88;32.35;96763.91;6150094;28;20280;-64
2022/07/17 14:48:35;;;;;;;;;;;;;;;28.78;32.62;96771.69;6149743;28;19926;-66
2022/07/17 14:51:36;;;;;;;;;;;;;;;28.78;32.50;96774.38;6149343;28;19923;-66
2022/07/17 14:54:37;;;;;;;;;;;;;;;28.82;32.57;96777.50;6149967;28;19933;-65
2022/07/17 14:57:43;;;;;;;;;;;;;;;28.81;32.55;96776.66;6149689;28;19922;-66
2022/07/17 15:00:47;;;;;;;;;;;;;;;28.76;32.58;96772.94;6149779;28;19927;-66
2022/07/17 15:03:52;;;;;;;;;;;;;;;28.67;32.81;96768.84;6149594;28;20320;-66
2022/07/17 15:06:53;;;;;;;;;;;;;;;28.56;32.82;96773.91;6149548;29;20029;-65
2022/07/17 15:09:57;;;;;;;;;;;;;;;28.55;32.81;96780.34;6149618;28;19927;-65
2022/07/17 15:13:00;;;;;;;;;;;;;;;28.52;32.84;96778.06;6149573;29;19927;-65
2022/07/17 15:16:04;;;;;;;;;;;;;;;28.52;32.90;96778.06;6149556;28;19927;-66
2022/07/17 15:19:05;;;;;;;;;;;;;;;28.40;33.22;96777.06;6163545;28;19937;-65
2022/07/17 15:22:06;;;;;;;;;;;;;;;28.33;33.60;96768.94;6149540;28;19988;-66
2022/07/17 15:25:09;;;;;;;;;;;;;;;28.20;33.49;96769.03;6149028;28;19981;-66
2022/07/17 15:28:11;;;;;;;;;;;;;;;27.98;33.78;96773.84;6149488;28;19926;-65
2022/07/17 15:31:15;;;;;;;;;;;;;;;27.86;34.24;96773.69;6163763;28;19926;-66
2022/07/17 15:34:20;;;;;;;;;;;;;;;27.67;34.38;96764.53;6149180;28;19927;-65
2022/07/17 15:37:24;;;;;;;;;;;;;;;27.52;34.39;96766.63;6149249;29;19933;-66
2022/07/17 15:40:29;;;;;;;;;;;;;;;27.45;34.66;96768.50;6148948;28;19926;-66
2022/07/17 15:43:33;;;;;;;;;;;;;;;27.37;34.82;96779.50;6148859;29;19926;-66
2022/07/17 15:46:34;;;;;;;;;;;;;;;27.30;34.82;96783.03;6148774;28;19937;-65
2022/07/17 15:49:35;;;;;;;;;;;;;;;27.26;35.44;96789.91;6148553;28;19933;-65
2022/07/17 15:52:37;;;;;;;;;;;;;;;27.26;35.42;96780.94;6149142;28;20389;-66
2022/07/17 15:55:38;;;;;;;;;;;;;;;27.25;35.75;96788.22;6148594;28;19933;-66
2022/07/17 15:58:39;;;;;;;;;;;;;;;27.21;35.81;96787.00;6149080;28;19927;-65
2022/07/17 16:01:46;;;;;;;;;;;;;;;27.11;35.90;96791.94;6148976;28;19977;-65
2022/07/17 16:04:50;;;;;;;;;;;;;;;27.07;36.58;96802.31;6151861;28;20275;-66